createdAt,value
2018-05-06T00:02:05.566Z,2.40
2018-05-06T00:04:35.460Z,2.60
2018-05-06T00:07:03.937Z,2.60
2018-05-06T00:09:37.669Z,2.40
2018-05-06T00:12:05.715Z,2.40
2018-05-06T00:14:34.194Z,2.50
2018-05-06T00:17:08.969Z,2.43
2018-05-06T00:19:37.069Z,2.60
2018-05-06T00:22:05.985Z,2.00
2018-05-06T00:24:42.069Z,2.37
2018-05-06T00:27:11.092Z,2.30
2018-05-06T00:29:39.189Z,2.63
2018-05-06T00:32:07.526Z,2.27
2018-05-06T00:34:36.653Z,2.80
2018-05-06T00:37:05.159Z,3.07
2018-05-06T00:39:34.965Z,2.40
2018-05-06T00:42:03.588Z,2.70
2018-05-06T00:44:32.530Z,2.80
2018-05-06T00:47:00.648Z,2.80
2018-05-06T00:49:30.759Z,2.30
2018-05-06T00:51:59.273Z,2.37
2018-05-06T00:54:36.455Z,2.30
2018-05-06T00:57:05.658Z,2.27
2018-05-06T00:59:33.699Z,2.40
2018-05-06T01:02:01.976Z,2.20
2018-05-06T01:04:30.360Z,2.37
2018-05-06T01:06:59.317Z,2.27
2018-05-06T01:09:27.598Z,2.37
2018-05-06T01:11:55.664Z,2.20
2018-05-06T01:14:23.787Z,2.93
2018-05-06T01:16:51.946Z,2.27
2018-05-06T01:19:20.888Z,2.47
2018-05-06T01:21:49.164Z,2.60
2018-05-06T01:24:17.299Z,3.13
2018-05-06T01:26:45.390Z,3.00
2018-05-06T01:29:14.551Z,3.00
2018-05-06T01:31:43.703Z,3.17
2018-05-06T01:34:12.217Z,2.93
2018-05-06T01:36:40.743Z,2.50
2018-05-06T01:39:09.170Z,3.10
2018-05-06T01:41:37.313Z,2.53
2018-05-06T01:44:05.720Z,3.00
2018-05-06T01:46:34.458Z,2.83
2018-05-06T01:49:03.139Z,2.50
2018-05-06T01:51:31.307Z,3.00
2018-05-06T01:53:59.490Z,3.00
2018-05-06T01:56:27.957Z,2.60
2018-05-06T01:58:56.102Z,3.10
2018-05-06T02:01:24.321Z,2.57
2018-05-06T02:03:52.515Z,3.03
2018-05-06T02:06:20.806Z,2.90
2018-05-06T02:08:48.829Z,3.07
2018-05-06T02:11:16.899Z,3.40
2018-05-06T02:13:45.221Z,2.80
2018-05-06T02:16:13.753Z,3.00
2018-05-06T02:18:42.760Z,3.00
2018-05-06T02:21:10.973Z,3.00
2018-05-06T02:23:39.044Z,2.97
2018-05-06T02:26:07.958Z,2.87
2018-05-06T02:28:36.798Z,3.20
2018-05-06T02:31:05.843Z,3.10
2018-05-06T02:33:34.068Z,3.40
2018-05-06T02:36:02.343Z,3.60
2018-05-06T02:38:30.474Z,3.30
2018-05-06T02:40:58.830Z,3.37
2018-05-06T02:43:27.401Z,3.27
2018-05-06T02:45:55.590Z,3.53
2018-05-06T02:48:24.561Z,3.00
2018-05-06T02:50:52.697Z,3.23
2018-05-06T02:53:20.990Z,2.87
2018-05-06T02:55:49.003Z,3.10
2018-05-06T02:58:17.470Z,2.93
2018-05-06T03:00:45.976Z,3.00
2018-05-06T03:03:15.286Z,3.10
2018-05-06T03:05:43.375Z,3.43
2018-05-06T03:08:12.647Z,3.23
2018-05-06T03:10:40.841Z,3.33
2018-05-06T03:13:09.078Z,3.30
2018-05-06T03:15:37.344Z,2.63
2018-05-06T03:18:05.398Z,3.00
2018-05-06T03:20:33.775Z,3.17
2018-05-06T03:23:02.123Z,3.07
2018-05-06T03:25:30.909Z,2.90
2018-05-06T03:27:59.343Z,3.10
2018-05-06T03:30:27.851Z,3.03
2018-05-06T03:32:56.037Z,3.17
2018-05-06T03:35:24.219Z,3.10
2018-05-06T03:37:53.034Z,3.20
2018-05-06T03:40:21.354Z,2.93
2018-05-06T03:42:50.497Z,2.70
2018-05-06T03:45:19.266Z,3.47
2018-05-06T03:47:47.516Z,3.27
2018-05-06T03:50:15.660Z,3.00
2018-05-06T03:52:44.471Z,3.07
2018-05-06T03:55:13.560Z,3.50
2018-05-06T03:59:56.464Z,3.10
2018-05-06T04:02:31.327Z,3.20
2018-05-06T04:04:59.790Z,3.20
2018-05-06T04:07:28.073Z,3.20
2018-05-06T04:09:57.209Z,3.30
2018-05-06T04:12:25.734Z,3.53
2018-05-06T04:14:53.987Z,2.93
2018-05-06T04:17:22.259Z,3.20
2018-05-06T04:19:50.363Z,2.97
2018-05-06T04:22:19.251Z,3.50
2018-05-06T04:24:47.711Z,3.40
2018-05-06T04:27:16.573Z,3.10
2018-05-06T04:29:48.619Z,3.07
2018-05-06T04:32:16.931Z,3.33
2018-05-06T04:34:45.163Z,3.90
2018-05-06T04:37:14.075Z,3.43
2018-05-06T04:39:42.289Z,3.00
2018-05-06T04:42:10.407Z,3.13
2018-05-06T04:44:38.726Z,2.77
2018-05-06T04:47:07.210Z,3.03
2018-05-06T04:49:37.875Z,2.67
2018-05-06T04:52:05.950Z,3.00
2018-05-06T04:54:35.199Z,2.80
2018-05-06T04:57:04.476Z,2.90
2018-05-06T04:59:35.241Z,3.20
2018-05-06T05:02:04.137Z,3.20
2018-05-06T05:04:33.400Z,3.20
2018-05-06T05:07:02.460Z,3.23
2018-05-06T05:09:31.930Z,3.27
2018-05-06T05:11:59.935Z,2.90
2018-05-06T05:14:28.272Z,3.10
2018-05-06T05:16:56.362Z,3.10
2018-05-06T05:19:24.477Z,2.60
2018-05-06T05:21:52.525Z,3.10
2018-05-06T05:24:20.669Z,2.87
2018-05-06T05:26:48.974Z,2.40
2018-05-06T05:29:17.341Z,2.70
2018-05-06T05:31:45.542Z,2.40
2018-05-06T05:34:14.389Z,2.63
2018-05-06T05:36:42.444Z,2.70
2018-05-06T05:39:11.288Z,2.30
2018-05-06T05:41:40.025Z,2.60
2018-05-06T05:44:08.267Z,3.00
2018-05-06T05:46:36.723Z,2.70
2018-05-06T05:49:05.026Z,3.13
2018-05-06T05:51:33.138Z,3.10
2018-05-06T05:54:02.270Z,3.47
2018-05-06T05:56:30.532Z,3.27
2018-05-06T05:58:58.562Z,3.33
2018-05-06T06:01:27.097Z,2.83
2018-05-06T06:03:55.093Z,2.70
2018-05-06T06:06:23.198Z,3.53
2018-05-06T06:08:51.462Z,3.03
2018-05-06T06:11:28.487Z,3.33
2018-05-06T06:14:04.375Z,3.30
2018-05-06T06:16:34.652Z,3.43
2018-05-06T06:19:03.331Z,3.73
2018-05-06T06:21:31.744Z,3.20
2018-05-06T06:24:02.782Z,2.90
2018-05-06T06:26:31.697Z,2.90
2018-05-06T06:28:59.894Z,2.87
2018-05-06T06:31:28.401Z,3.10
2018-05-06T06:33:57.072Z,3.00
2018-05-06T06:36:25.517Z,3.33
2018-05-06T06:38:53.785Z,3.30
2018-05-06T06:41:21.986Z,3.47
2018-05-06T06:43:50.431Z,2.80
2018-05-06T06:46:19.093Z,2.80
2018-05-06T06:48:48.018Z,3.00
2018-05-06T06:54:51.675Z,3.20
2018-05-06T06:57:19.947Z,2.80
2018-05-06T06:59:52.458Z,2.30
2018-05-06T07:02:21.582Z,2.67
2018-05-06T07:04:49.939Z,2.50
2018-05-06T07:07:18.803Z,2.63
2018-05-06T07:09:46.994Z,2.77
2018-05-06T07:12:16.120Z,3.10
2018-05-06T07:14:45.035Z,2.90
2018-05-06T07:17:13.269Z,2.70
2018-05-06T07:19:42.515Z,2.37
2018-05-06T07:22:10.866Z,4.23
2018-05-06T07:24:38.982Z,2.70
2018-05-06T07:27:07.433Z,2.23
2018-05-06T07:29:35.639Z,2.47
2018-05-06T07:32:04.651Z,2.40
2018-05-06T07:34:32.957Z,2.53
2018-05-06T07:37:01.278Z,3.23
2018-05-06T07:39:29.530Z,2.37
2018-05-06T07:41:57.713Z,2.20
2018-05-06T07:44:25.884Z,2.20
2018-05-06T07:46:55.535Z,2.47
2018-05-06T07:49:23.622Z,2.20
2018-05-06T07:51:52.572Z,2.33
2018-05-06T07:54:20.849Z,2.10
2018-05-06T07:56:49.154Z,1.97
2018-05-06T07:59:18.322Z,1.77
2018-05-06T08:01:47.957Z,1.87
2018-05-06T08:04:17.135Z,2.00
2018-05-06T08:06:45.627Z,1.77
2018-05-06T08:09:14.582Z,1.53
2018-05-06T08:11:43.005Z,1.57
2018-05-06T08:14:12.303Z,1.40
2018-05-06T08:16:40.547Z,1.50
2018-05-06T08:19:08.717Z,1.40
2018-05-06T08:21:37.759Z,1.97
2018-05-06T08:24:06.084Z,1.87
2018-05-06T08:26:34.205Z,1.50
2018-05-06T08:29:03.336Z,1.67
2018-05-06T08:31:31.542Z,1.50
2018-05-06T08:33:59.634Z,1.50
2018-05-06T08:36:27.837Z,1.83
2018-05-06T08:38:56.198Z,1.70
2018-05-06T08:41:25.130Z,1.57
2018-05-06T08:43:53.428Z,1.80
2018-05-06T08:46:21.680Z,1.50
2018-05-06T08:48:49.746Z,1.30
2018-05-06T08:51:17.867Z,1.67
2018-05-06T08:53:46.951Z,1.60
2018-05-06T08:56:15.260Z,1.60
2018-05-06T08:58:43.753Z,1.77
2018-05-06T09:01:11.869Z,2.10
2018-05-06T09:03:40.023Z,1.70
2018-05-06T09:06:08.245Z,1.57
2018-05-06T09:08:36.545Z,1.47
2018-05-06T09:11:05.137Z,1.67
2018-05-06T09:13:33.506Z,1.50
2018-05-06T09:16:01.649Z,1.77
2018-05-06T09:18:30.450Z,1.60
2018-05-06T09:20:58.694Z,1.40
2018-05-06T09:23:27.063Z,1.50
2018-05-06T09:25:55.370Z,1.70
2018-05-06T09:28:24.230Z,1.63
2018-05-06T09:30:52.554Z,1.53
2018-05-06T09:33:20.816Z,1.60
2018-05-06T09:35:50.097Z,1.30
2018-05-06T09:38:19.072Z,1.80
2018-05-06T09:40:47.362Z,1.90
2018-05-06T09:43:16.212Z,1.30
2018-05-06T09:45:44.575Z,1.60
2018-05-06T09:48:12.867Z,1.33
2018-05-06T09:50:40.996Z,1.87
2018-05-06T09:53:09.403Z,2.50
2018-05-06T09:55:37.618Z,1.70
2018-05-06T09:58:07.279Z,1.40
2018-05-06T10:00:35.520Z,1.50
2018-05-06T10:03:03.875Z,1.60
2018-05-06T10:05:32.595Z,1.50
2018-05-06T10:08:01.630Z,1.67
2018-05-06T10:10:30.283Z,1.80
2018-05-06T10:12:59.230Z,1.67
2018-05-06T10:15:27.345Z,1.60
2018-05-06T10:17:56.549Z,1.60
2018-05-06T10:20:24.963Z,1.63
2018-05-06T10:22:53.168Z,1.50
2018-05-06T10:25:21.525Z,2.13
2018-05-06T10:27:49.619Z,1.30
2018-05-06T10:30:17.729Z,1.40
2018-05-06T10:32:45.865Z,1.60
2018-05-06T10:35:13.988Z,1.27
2018-05-06T10:37:42.109Z,1.40
2018-05-06T10:40:10.374Z,1.30
2018-05-06T10:42:38.396Z,1.50
2018-05-06T10:45:07.451Z,1.30
2018-05-06T10:47:36.232Z,1.50
2018-05-06T10:50:04.404Z,1.53
2018-05-06T10:52:33.232Z,1.40
2018-05-06T10:55:01.712Z,1.30
2018-05-06T10:57:30.042Z,1.10
2018-05-06T10:59:58.130Z,1.43
2018-05-06T11:02:27.281Z,1.47
2018-05-06T11:04:55.307Z,1.47
2018-05-06T11:07:24.153Z,1.47
2018-05-06T11:09:52.216Z,1.80
2018-05-06T11:12:21.077Z,2.73
2018-05-06T11:14:49.188Z,1.40
2018-05-06T11:17:17.251Z,1.47
2018-05-06T11:19:46.556Z,1.23
2018-05-06T11:22:14.658Z,1.20
2018-05-06T11:24:42.817Z,1.60
2018-05-06T11:27:10.883Z,1.07
2018-05-06T11:29:39.007Z,1.40
2018-05-06T11:32:08.038Z,1.17
2018-05-06T11:34:36.323Z,1.37
2018-05-06T11:37:04.601Z,1.37
2018-05-06T11:39:34.491Z,1.20
2018-05-06T11:42:02.723Z,1.30
2018-05-06T11:44:31.750Z,1.40
2018-05-06T11:46:59.803Z,1.20
2018-05-06T11:49:28.660Z,1.33
2018-05-06T11:51:57.585Z,1.17
2018-05-06T11:54:25.727Z,1.27
2018-05-06T11:56:54.565Z,1.63
2018-05-06T11:59:24.935Z,1.40
2018-05-06T12:01:53.777Z,1.23
2018-05-06T12:04:21.811Z,1.50
2018-05-06T12:06:50.687Z,1.33
2018-05-06T12:09:19.766Z,1.40
2018-05-06T12:11:48.870Z,1.47
2018-05-06T12:14:17.000Z,1.57
2018-05-06T12:16:45.298Z,1.87
2018-05-06T12:19:13.364Z,1.43
2018-05-06T12:21:41.528Z,1.70
2018-05-06T12:24:09.676Z,1.73
2018-05-06T12:26:37.785Z,1.70
2018-05-06T12:29:06.736Z,1.57
2018-05-06T12:31:34.724Z,1.50
2018-05-06T12:34:02.716Z,1.33
2018-05-06T12:36:31.095Z,1.70
2018-05-06T12:38:59.167Z,1.60
2018-05-06T12:41:27.342Z,1.67
2018-05-06T12:43:56.722Z,1.60
2018-05-06T12:46:25.409Z,1.80
2018-05-06T12:48:53.645Z,1.50
2018-05-06T12:51:21.836Z,1.50
2018-05-06T12:53:50.251Z,1.30
2018-05-06T12:56:18.512Z,1.50
2018-05-06T12:58:46.875Z,1.50
2018-05-06T13:01:15.571Z,1.40
2018-05-06T13:03:44.448Z,2.23
2018-05-06T13:06:13.015Z,1.40
2018-05-06T13:08:41.180Z,1.63
2018-05-06T13:11:09.311Z,1.17
2018-05-06T13:13:37.579Z,1.43
2018-05-06T13:16:05.686Z,1.50
2018-05-06T13:18:34.647Z,1.30
2018-05-06T13:21:02.800Z,1.37
2018-05-06T13:23:30.979Z,1.80
2018-05-06T13:25:59.196Z,1.67
2018-05-06T13:28:28.565Z,1.93
2018-05-06T13:30:57.549Z,1.30
2018-05-06T13:33:25.904Z,1.73
2018-05-06T13:35:54.074Z,1.80
2018-05-06T13:38:22.318Z,1.70
2018-05-06T13:40:50.675Z,1.50
2018-05-06T13:43:18.977Z,1.60
2018-05-06T13:45:47.415Z,1.60
2018-05-06T13:48:15.968Z,1.90
2018-05-06T13:50:44.214Z,1.90
2018-05-06T13:53:13.609Z,1.40
2018-05-06T13:55:42.773Z,1.70
2018-05-06T13:58:10.976Z,1.70
2018-05-06T14:00:39.879Z,1.70
2018-05-06T14:03:08.939Z,1.80
2018-05-06T14:05:37.641Z,1.67
2018-05-06T14:08:06.957Z,2.30
2018-05-06T14:10:35.794Z,2.53
2018-05-06T14:13:04.149Z,1.73
2018-05-06T14:15:33.110Z,1.60
2018-05-06T14:18:02.282Z,1.97
2018-05-06T14:20:32.324Z,1.67
2018-05-06T14:23:00.425Z,1.67
2018-05-06T14:25:28.536Z,1.50
2018-05-06T14:27:56.860Z,1.83
2018-05-06T14:30:25.049Z,1.70
2018-05-06T14:32:53.317Z,1.30
2018-05-06T14:35:21.518Z,1.20
2018-05-06T14:37:49.611Z,1.33
2018-05-06T14:40:17.958Z,1.43
2018-05-06T14:42:46.538Z,1.70
2018-05-06T14:45:14.842Z,1.50
2018-05-06T14:47:53.909Z,1.50
2018-05-06T14:50:23.168Z,1.40
2018-05-06T14:52:51.289Z,1.43
2018-05-06T14:55:19.446Z,1.23
2018-05-06T14:57:48.510Z,1.40
2018-05-06T15:00:16.728Z,1.47
2018-05-06T15:02:44.814Z,1.87
2018-05-06T15:05:12.901Z,1.33
2018-05-06T15:07:41.141Z,1.53
2018-05-06T15:10:09.304Z,1.73
2018-05-06T15:12:38.452Z,1.53
2018-05-06T15:15:06.543Z,1.47
2018-05-06T15:17:35.020Z,1.50
2018-05-06T15:20:03.125Z,1.50
2018-05-06T15:22:32.044Z,1.33
2018-05-06T15:25:00.227Z,1.70
2018-05-06T15:27:28.434Z,3.40
2018-05-06T15:29:57.606Z,1.50
2018-05-06T15:32:25.761Z,1.73
2018-05-06T15:34:53.773Z,1.33
2018-05-06T15:37:22.094Z,1.67
2018-05-06T15:39:50.419Z,1.63
2018-05-06T15:42:18.697Z,1.70
2018-05-06T15:44:47.294Z,1.60
2018-05-06T15:47:16.421Z,1.60
2018-05-06T15:49:44.661Z,2.30
2018-05-06T15:52:12.698Z,1.70
2018-05-06T15:54:41.517Z,1.73
2018-05-06T15:57:09.667Z,1.50
2018-05-06T15:59:38.875Z,1.70
2018-05-06T16:02:08.001Z,2.37
2018-05-06T16:04:37.012Z,1.60
2018-05-06T16:07:06.039Z,1.53
2018-05-06T16:09:34.343Z,1.27
2018-05-06T16:12:03.143Z,1.77
2018-05-06T16:14:31.227Z,1.10
2018-05-06T16:17:00.518Z,1.30
2018-05-06T16:19:28.973Z,1.70
2018-05-06T16:21:57.182Z,1.60
2018-05-06T16:24:26.211Z,1.50
2018-05-06T16:26:54.209Z,1.20
2018-05-06T16:29:22.263Z,1.33
2018-05-06T16:31:50.378Z,1.40
2018-05-06T16:34:18.436Z,1.87
2018-05-06T16:36:46.684Z,1.30
2018-05-06T16:39:14.805Z,1.57
2018-05-06T16:41:43.386Z,1.40
2018-05-06T16:44:12.428Z,1.27
2018-05-06T16:46:41.188Z,1.50
2018-05-06T16:49:10.212Z,1.20
2018-05-06T16:51:38.322Z,1.40
2018-05-06T16:54:06.653Z,0.93
2018-05-06T16:56:34.826Z,1.40
2018-05-06T16:59:03.192Z,1.80
2018-05-06T17:01:31.604Z,1.43
2018-05-06T17:03:59.773Z,1.20
2018-05-06T17:06:28.082Z,1.80
2018-05-06T17:08:57.258Z,1.40
2018-05-06T17:11:25.666Z,1.60
2018-05-06T17:13:53.826Z,1.50
2018-05-06T17:16:22.918Z,1.60
2018-05-06T17:18:51.493Z,1.60
2018-05-06T17:21:19.801Z,1.40
2018-05-06T17:23:48.898Z,1.90
2018-05-06T17:26:17.829Z,1.60
2018-05-06T17:28:45.897Z,1.50
2018-05-06T17:31:14.003Z,1.60
2018-05-06T17:33:42.331Z,1.80
2018-05-06T17:36:10.633Z,1.70
2018-05-06T17:38:39.579Z,1.40
2018-05-06T17:41:07.912Z,1.73
2018-05-06T17:43:36.230Z,2.07
2018-05-06T17:46:05.472Z,2.30
2018-05-06T17:48:33.582Z,1.97
2018-05-06T17:51:02.365Z,1.60
2018-05-06T17:53:30.698Z,2.00
2018-05-06T17:55:58.875Z,1.90
2018-05-06T17:58:27.096Z,1.60
2018-05-06T18:00:56.143Z,2.03
2018-05-06T18:03:24.640Z,1.63
2018-05-06T18:05:53.913Z,1.80
2018-05-06T18:08:22.065Z,1.80
2018-05-06T18:10:51.414Z,2.03
2018-05-06T18:13:19.538Z,2.20
2018-05-06T18:15:47.634Z,1.90
2018-05-06T18:18:15.896Z,1.80
2018-05-06T18:20:44.010Z,2.00
2018-05-06T18:23:12.188Z,1.90
2018-05-06T18:25:40.414Z,1.63
2018-05-06T18:28:08.669Z,1.90
2018-05-06T18:30:37.645Z,1.70
2018-05-06T18:33:06.506Z,1.90
2018-05-06T18:35:35.561Z,1.80
2018-05-06T18:38:03.714Z,1.90
2018-05-06T18:40:32.713Z,1.80
2018-05-06T18:43:01.587Z,2.20
2018-05-06T18:45:31.155Z,1.90
2018-05-06T18:47:59.237Z,1.73
2018-05-06T18:50:27.293Z,2.17
2018-05-06T18:52:55.677Z,1.60
2018-05-06T18:55:24.705Z,1.80
2018-05-06T18:57:53.780Z,1.63
2018-05-06T19:00:21.839Z,2.00
2018-05-06T19:02:49.941Z,2.30
2018-05-06T19:05:18.893Z,2.43
2018-05-06T19:07:47.291Z,2.20
2018-05-06T19:10:15.435Z,2.10
2018-05-06T19:12:43.932Z,2.03
2018-05-06T19:15:12.216Z,1.90
2018-05-06T19:17:40.345Z,1.77
2018-05-06T19:20:08.651Z,1.90
2018-05-06T19:22:36.999Z,2.10
2018-05-06T19:25:05.838Z,2.07
2018-05-06T19:27:34.007Z,2.20
2018-05-06T19:30:02.277Z,2.77
2018-05-06T19:32:30.375Z,2.00
2018-05-06T19:34:58.833Z,2.23
2018-05-06T19:37:27.131Z,2.20
2018-05-06T19:39:55.949Z,1.90
2018-05-06T19:42:25.199Z,1.70
2018-05-06T19:44:53.255Z,1.67
2018-05-06T19:47:21.702Z,1.80
2018-05-06T19:49:50.253Z,2.13
2018-05-06T19:52:18.589Z,2.20
2018-05-06T19:54:46.859Z,1.97
2018-05-06T19:57:15.156Z,2.07
2018-05-06T19:59:44.363Z,2.20
2018-05-06T20:02:12.642Z,1.90
2018-05-06T20:04:40.782Z,2.00
2018-05-06T20:07:09.209Z,1.87
2018-05-06T20:09:38.197Z,1.50
2018-05-06T20:12:07.051Z,2.27
2018-05-06T20:14:36.419Z,2.00
2018-05-06T20:17:05.685Z,1.73
2018-05-06T20:19:34.008Z,1.60
2018-05-06T20:22:02.642Z,2.27
2018-05-06T20:24:31.576Z,2.00
2018-05-06T20:26:59.673Z,2.00
2018-05-06T20:29:27.816Z,2.20
2018-05-06T20:31:56.775Z,1.97
2018-05-06T20:34:25.217Z,2.13
2018-05-06T20:36:54.269Z,1.90
2018-05-06T20:39:23.480Z,2.30
2018-05-06T20:41:52.092Z,1.80
2018-05-06T20:44:20.223Z,2.50
2018-05-06T20:46:48.452Z,2.40
2018-05-06T20:49:16.712Z,1.70
2018-05-06T20:51:46.173Z,2.13
2018-05-06T20:54:14.364Z,1.70
2018-05-06T20:56:42.434Z,2.30
2018-05-06T20:59:10.863Z,2.50
2018-05-06T21:01:39.145Z,1.90
2018-05-06T21:04:07.419Z,1.80
2018-05-06T21:06:35.777Z,1.90
2018-05-06T21:09:04.841Z,1.60
2018-05-06T21:11:32.949Z,2.00
2018-05-06T21:14:01.150Z,4.17
2018-05-06T21:16:30.365Z,6.80
2018-05-06T21:18:58.729Z,6.17
2018-05-06T21:21:27.488Z,3.03
2018-05-06T21:23:56.569Z,2.10
2018-05-06T21:26:24.749Z,2.37
2018-05-06T21:28:53.768Z,3.10
2018-05-06T21:31:22.377Z,9.20
2018-05-06T21:33:51.507Z,2.50
2018-05-06T21:36:19.731Z,2.43
2018-05-06T21:38:48.582Z,2.40
2018-05-06T21:41:16.895Z,2.37
2018-05-06T21:43:45.867Z,2.33
2018-05-06T21:46:14.404Z,2.33
2018-05-06T21:48:42.507Z,2.30
2018-05-06T21:51:10.912Z,2.40
2018-05-06T21:53:39.370Z,2.43
2018-05-06T21:56:07.650Z,2.10
2018-05-06T21:58:35.777Z,2.27
2018-05-06T22:01:03.989Z,1.90
2018-05-06T22:03:32.991Z,1.67
2018-05-06T22:06:02.898Z,1.70
2018-05-06T22:08:31.609Z,1.83
2018-05-06T22:11:01.828Z,2.23
2018-05-06T22:13:30.238Z,2.00
2018-05-06T22:15:59.499Z,1.73
2018-05-06T22:18:27.922Z,2.17
2018-05-06T22:20:56.579Z,2.13
2018-05-06T22:23:24.835Z,2.57
2018-05-06T22:25:52.907Z,2.30
2018-05-06T22:28:20.991Z,2.37
2018-05-06T22:30:49.946Z,2.30
2018-05-06T22:33:18.174Z,2.20
2018-05-06T22:35:46.297Z,2.00
2018-05-06T22:38:15.063Z,2.37
2018-05-06T22:40:44.102Z,2.10
2018-05-06T22:43:12.456Z,1.70
2018-05-06T22:45:40.534Z,1.70
2018-05-06T22:48:08.634Z,2.30
2018-05-06T22:50:37.596Z,1.93
2018-05-06T22:53:07.380Z,1.80
2018-05-06T22:55:35.914Z,1.73
2018-05-06T22:58:04.835Z,1.77
2018-05-06T23:00:33.933Z,1.90
2018-05-06T23:03:02.109Z,2.13
2018-05-06T23:05:30.488Z,2.10
2018-05-06T23:07:59.681Z,1.90
2018-05-06T23:10:28.059Z,1.90
2018-05-06T23:12:56.484Z,1.73
2018-05-06T23:15:24.957Z,2.13
2018-05-06T23:17:54.052Z,1.77
2018-05-06T23:20:22.401Z,1.90
2018-05-06T23:22:50.438Z,2.03
2018-05-06T23:25:19.603Z,1.90
2018-05-06T23:27:48.259Z,1.90
2018-05-06T23:30:17.289Z,1.80
2018-05-06T23:32:45.405Z,2.30
2018-05-06T23:35:13.834Z,1.70
2018-05-06T23:37:41.850Z,2.37
2018-05-06T23:40:09.867Z,1.70
2018-05-06T23:42:38.357Z,1.77
2018-05-06T23:45:06.521Z,2.07
2018-05-06T23:47:34.794Z,2.00
2018-05-06T23:50:02.849Z,2.00
2018-05-06T23:52:31.150Z,1.80
2018-05-06T23:54:59.331Z,3.20
2018-05-06T23:57:27.581Z,1.80
2018-05-06T23:59:55.912Z,2.10
